Time;durP1;ratioP1;P1;durP2;ratioP2;P2;SDS_P1;SDS_P2;PMS_P1;PMS_P2;Temp;Humidity;BMP_temperature;BMP_pressure;BME280_temperature;BME280_humidity;BME280_pressure;Samples;Min_cycle;Max_cycle;Signal;HPM_P1;HPM_P2
2023/05/08 00:00:03;;;;;;;11.87;6.47;;;;;;;8.28;88.15;101754.16;6054612;28;20732;-69
2023/05/08 00:02:59;;;;;;;11.23;5.05;;;;;;;8.47;86.91;101755.50;6048904;28;20504;-72
2023/05/08 00:05:54;;;;;;;10.27;5.73;;;;;;;8.42;85.97;101752.34;6048331;28;20038;-73
2023/05/08 00:08:49;;;;;;;10.00;5.65;;;;;;;8.40;85.87;101751.63;6049046;28;20028;-73
2023/05/08 00:11:45;;;;;;;7.97;4.77;;;;;;;8.44;85.86;101771.59;6055123;28;20046;-72
2023/05/08 00:14:40;;;;;;;9.37;5.50;;;;;;;8.46;85.68;101753.81;6049871;28;20030;-68
2023/05/08 00:17:35;;;;;;;9.40;6.05;;;;;;;8.38;85.80;101757.84;6050607;28;20092;-68
2023/05/08 00:20:33;;;;;;;10.40;5.93;;;;;;;8.25;86.28;101756.97;6048780;28;20081;-72
2023/05/08 00:23:28;;;;;;;9.55;5.30;;;;;;;8.23;86.48;101763.31;6047872;28;20272;-69
2023/05/08 00:26:23;;;;;;;8.60;5.23;;;;;;;8.24;87.04;101771.13;6049093;28;20391;-73
2023/05/08 00:29:19;;;;;;;8.70;5.00;;;;;;;8.18;87.21;101753.03;6048746;28;20034;-70
2023/05/08 00:32:14;;;;;;;10.55;4.85;;;;;;;8.16;87.62;101762.88;6048766;28;20085;-70
2023/05/08 00:35:09;;;;;;;9.07;5.53;;;;;;;8.10;87.74;101754.53;6048071;28;20096;-69
2023/05/08 00:38:04;;;;;;;12.07;5.70;;;;;;;8.17;87.35;101774.28;6048897;28;20099;-69
2023/05/08 00:41:00;;;;;;;12.13;6.23;;;;;;;8.14;87.37;101775.34;6061712;28;20033;-72
2023/05/08 00:43:55;;;;;;;9.27;5.82;;;;;;;8.02;87.21;101757.69;6058392;28;20033;-70
2023/05/08 00:46:51;;;;;;;11.00;5.37;;;;;;;8.08;87.17;101781.03;6049249;28;20030;-70
2023/05/08 00:49:46;;;;;;;11.70;5.47;;;;;;;7.94;87.36;101762.63;6056129;28;20066;-71
2023/05/08 00:52:42;;;;;;;9.60;5.27;;;;;;;7.92;87.52;101763.69;6048725;28;20025;-70
2023/05/08 00:55:37;;;;;;;13.20;6.30;;;;;;;7.85;87.62;101758.00;6047987;28;20050;-69
2023/05/08 00:58:32;;;;;;;11.38;5.53;;;;;;;7.87;87.53;101756.09;6048161;28;20436;-70
2023/05/08 01:01:28;;;;;;;10.53;5.50;;;;;;;7.93;87.32;101768.88;6052890;28;20038;-71
2023/05/08 01:04:24;;;;;;;9.93;5.07;;;;;;;7.87;87.54;101768.44;6051377;28;20273;-70
2023/05/08 01:07:20;;;;;;;10.80;5.35;;;;;;;7.78;88.36;101776.03;6052693;28;20108;-71
2023/05/08 01:10:15;;;;;;;11.73;5.53;;;;;;;7.75;88.33;101781.50;6052325;28;20112;-68
2023/05/08 01:13:19;;;;;;;8.52;5.45;;;;;;;7.76;88.32;101769.16;6052290;28;20165;-71
2023/05/08 01:16:24;;;;;;;8.63;4.90;;;;;;;7.59;88.70;101751.78;6052691;28;20492;-69
2023/05/08 01:19:52;;;;;;;8.23;4.68;;;;;;;7.67;88.93;101775.03;6044686;28;20033;-70
2023/05/08 01:23:31;;;;;;;10.60;5.45;;;;;;;7.65;89.06;101776.94;6062797;28;20432;-69
2023/05/08 01:26:54;;;;;;;7.95;4.28;;;;;;;7.63;89.29;101773.56;6024874;28;20041;-71
2023/05/08 01:30:15;;;;;;;9.30;5.60;;;;;;;7.54;89.48;101766.25;6052033;28;20029;-72
2023/05/08 01:33:17;;;;;;;10.73;5.50;;;;;;;7.47;89.74;101759.69;6051857;28;20108;-69
2023/05/08 01:36:28;;;;;;;11.88;6.18;;;;;;;7.47;90.21;101784.28;6034067;28;20103;-70
2023/05/08 01:39:35;;;;;;;10.13;5.13;;;;;;;7.29;90.82;101752.94;6034567;28;20086;-71
2023/05/08 01:42:44;;;;;;;11.40;6.75;;;;;;;7.24;91.68;101757.69;6040652;28;20499;-70
2023/05/08 01:45:43;;;;;;;11.40;6.50;;;;;;;7.16;92.40;101768.72;6051192;28;20030;-68
2023/05/08 01:48:43;;;;;;;12.05;6.22;;;;;;;6.91;94.15;101758.88;6051709;28;20059;-68
2023/05/08 01:51:47;;;;;;;11.48;5.97;;;;;;;6.83;95.34;101770.84;6033962;28;20022;-68
2023/05/08 01:54:58;;;;;;;11.25;6.70;;;;;;;6.64;96.42;101750.06;6047670;28;20042;-70
2023/05/08 01:57:57;;;;;;;14.98;7.03;;;;;;;6.66;96.57;101764.00;6049656;28;20478;-70
2023/05/08 02:00:52;;;;;;;12.27;6.13;;;;;;;6.65;96.96;101766.75;6050559;28;20042;-72
2023/05/08 02:03:49;;;;;;;13.45;6.43;;;;;;;6.56;96.77;101747.06;6049414;28;20041;-70
2023/05/08 02:06:44;;;;;;;13.77;6.88;;;;;;;6.62;96.99;101757.25;6052009;28;20055;-69
2023/05/08 02:09:41;;;;;;;13.10;6.20;;;;;;;6.64;96.82;101771.16;6054957;28;20454;-70
2023/05/08 02:12:37;;;;;;;12.88;6.82;;;;;;;6.46;96.77;101759.13;6041151;28;20087;-72
2023/05/08 02:15:35;;;;;;;16.35;6.38;;;;;;;6.47;97.58;101763.44;6057029;28;20028;-71
2023/05/08 02:18:30;;;;;;;13.27;6.90;;;;;;;6.53;97.39;101763.06;6076503;28;20114;-69
2023/05/08 02:21:26;;;;;;;12.60;5.95;;;;;;;6.56;97.20;101757.59;6071366;28;20371;-69
2023/05/08 02:24:23;;;;;;;13.68;6.90;;;;;;;6.52;96.51;101756.13;6033369;28;20030;-71
2023/05/08 02:27:20;;;;;;;11.18;5.78;;;;;;;6.49;97.29;101769.47;6033394;28;20049;-71
2023/05/08 02:30:16;;;;;;;12.75;6.55;;;;;;;6.32;97.75;101751.22;6050984;28;20040;-71
2023/05/08 02:33:13;;;;;;;14.50;6.20;;;;;;;6.31;98.16;101767.94;6033454;28;20026;-72
2023/05/08 02:36:10;;;;;;;14.60;7.15;;;;;;;6.19;98.84;101758.16;6032525;28;20492;-71
2023/05/08 02:39:07;;;;;;;12.88;6.70;;;;;;;6.21;99.40;101764.19;6041396;28;20057;-70
2023/05/08 02:42:02;;;;;;;13.38;6.97;;;;;;;6.19;99.50;101750.25;6043278;28;20026;-69
2023/05/08 02:44:58;;;;;;;12.70;7.07;;;;;;;6.15;99.32;101746.09;6052392;28;20082;-69
2023/05/08 02:48:03;;;;;;;14.88;6.85;;;;;;;6.09;99.80;101730.69;6049535;28;20265;-69
2023/05/08 02:51:35;;;;;;;13.00;6.90;;;;;;;6.22;99.36;101756.19;6050035;28;20101;-72
2023/05/08 02:54:39;;;;;;;11.95;5.93;;;;;;;6.18;98.93;101751.19;6049627;28;20040;-72
2023/05/08 02:57:47;;;;;;;11.38;6.25;;;;;;;6.27;98.72;101767.31;6050144;28;20636;-68
2023/05/08 03:01:05;;;;;;;14.90;6.32;;;;;;;6.26;98.27;101762.09;6032809;28;20022;-71
2023/05/08 03:04:04;;;;;;;12.57;5.78;;;;;;;6.13;98.55;101743.56;6030047;28;20033;-69
2023/05/08 03:07:00;;;;;;;13.02;6.20;;;;;;;6.21;98.31;101757.13;6032692;28;20038;-70
2023/05/08 03:10:02;;;;;;;11.82;5.93;;;;;;;6.22;97.81;101757.97;6049835;28;20033;-72
2023/05/08 03:12:59;;;;;;;12.82;6.43;;;;;;;6.30;97.48;101761.00;6040693;28;20075;-72
2023/05/08 03:15:56;;;;;;;13.60;6.60;;;;;;;6.26;97.56;101755.06;6033160;28;20033;-69
2023/05/08 03:18:54;;;;;;;12.52;6.10;;;;;;;6.27;97.38;101766.44;6032443;28;20030;-73
2023/05/08 03:21:51;;;;;;;18.83;7.30;;;;;;;6.21;97.15;101749.22;6049454;28;20060;-73
2023/05/08 03:24:47;;;;;;;13.52;6.05;;;;;;;6.29;96.55;101761.94;6047779;28;20095;-69
2023/05/08 03:27:43;;;;;;;14.02;7.15;;;;;;;6.20;97.09;101751.94;6034853;28;20347;-68
2023/05/08 03:30:40;;;;;;;17.48;6.95;;;;;;;6.20;96.99;101744.88;6049731;28;20021;-72
2023/05/08 03:33:37;;;;;;;14.63;6.18;;;;;;;6.20;96.86;101754.56;6048874;28;20401;-71
2023/05/08 03:36:32;;;;;;;14.55;7.10;;;;;;;6.14;97.43;101747.06;6042519;28;20480;-69
2023/05/08 03:39:27;;;;;;;12.17;6.10;;;;;;;6.23;98.15;101762.28;6049327;28;20034;-70
2023/05/08 03:42:23;;;;;;;12.87;6.10;;;;;;;6.13;98.08;101753.25;6049088;28;20033;-68
2023/05/08 03:45:18;;;;;;;13.38;6.05;;;;;;;6.19;97.64;101763.44;6048422;28;20038;-71
2023/05/08 03:48:15;;;;;;;14.60;6.47;;;;;;;6.17;98.18;101757.41;6057813;28;20060;-70
2023/05/08 03:51:10;;;;;;;13.25;5.75;;;;;;;6.23;97.89;101754.38;6048418;28;20029;-70
2023/05/08 03:54:06;;;;;;;12.60;5.72;;;;;;;6.24;97.80;101745.56;6055928;28;20029;-70
2023/05/08 03:57:01;;;;;;;12.60;5.90;;;;;;;6.18;97.31;101738.88;6049471;28;20034;-70
2023/05/08 04:00:03;;;;;;;13.17;6.80;;;;;;;6.15;97.46;101741.69;6049115;28;20037;-71
2023/05/08 04:03:11;;;;;;;13.52;6.35;;;;;;;6.24;97.85;101750.84;6048222;28;20021;-70
2023/05/08 04:06:13;;;;;;;12.35;6.13;;;;;;;6.31;97.06;101746.88;6048465;28;20084;-71
2023/05/08 04:09:33;;;;;;;11.57;6.38;;;;;;;6.37;97.02;101742.09;6031862;28;20033;-71
2023/05/08 04:12:50;;;;;;;11.73;6.43;;;;;;;6.59;96.28;101741.59;6039467;28;20480;-71
2023/05/08 04:16:00;;;;;;;11.43;5.53;;;;;;;6.89;93.46;101729.16;6059081;28;20061;-70
2023/05/08 04:19:04;;;;;;;11.10;5.00;;;;;;;7.15;91.81;101745.91;6031749;28;20065;-69
2023/05/08 04:22:05;;;;;;;10.43;5.13;;;;;;;7.25;90.93;101722.44;6031604;28;20018;-71
2023/05/08 04:25:03;;;;;;;10.93;5.32;;;;;;;7.28;90.67;101749.47;6049496;28;20037;-69
2023/05/08 04:27:58;;;;;;;16.38;7.57;;;;;;;7.21;89.88;101713.88;6059965;28;20037;-71
2023/05/08 04:30:54;;;;;;;15.70;6.43;;;;;;;7.34;89.65;101740.31;6048817;28;20125;-71
2023/05/08 04:33:50;;;;;;;10.68;5.80;;;;;;;7.52;89.06;101733.84;6032811;28;20022;-72
2023/05/08 04:36:47;;;;;;;12.65;6.78;;;;;;;7.73;87.14;101738.53;6053199;28;20041;-69
2023/05/08 04:39:42;;;;;;;8.55;4.82;;;;;;;7.67;87.49;101736.28;6052931;28;20484;-72
2023/05/08 04:42:41;;;;;;;9.27;4.67;;;;;;;7.84;85.93;101747.50;6054904;28;20029;-71
2023/05/08 04:45:36;;;;;;;10.48;5.30;;;;;;;7.71;87.51;101740.44;6062632;28;20041;-68
2023/05/08 04:48:32;;;;;;;9.93;5.27;;;;;;;7.76;85.82;101735.69;6063121;28;20026;-71
2023/05/08 04:51:28;;;;;;;9.43;4.80;;;;;;;7.84;86.90;101739.59;6052986;28;20064;-69
2023/05/08 04:54:23;;;;;;;8.95;4.80;;;;;;;8.18;84.84;101750.41;6052469;28;20037;-71
2023/05/08 04:57:18;;;;;;;8.27;4.27;;;;;;;7.97;84.55;101751.88;6052152;28;20056;-70
2023/05/08 05:00:14;;;;;;;8.80;4.07;;;;;;;8.20;84.57;101745.03;6052657;28;20108;-70
2023/05/08 05:03:10;;;;;;;9.65;5.80;;;;;;;7.98;85.07;101745.66;6053118;28;20028;-72
2023/05/08 05:06:05;;;;;;;10.43;5.27;;;;;;;8.01;84.95;101769.22;6051766;28;20396;-70
2023/05/08 05:09:00;;;;;;;13.23;5.53;;;;;;;7.78;85.29;101756.69;6052433;28;20041;-70
2023/05/08 05:11:55;;;;;;;10.70;5.67;;;;;;;7.66;85.97;101768.09;6052799;28;20057;-70
2023/05/08 05:14:51;;;;;;;12.90;5.20;;;;;;;7.71;86.50;101781.81;6051818;28;20154;-69
2023/05/08 05:17:46;;;;;;;9.20;5.10;;;;;;;7.62;86.49;101771.84;6052250;28;20037;-69
2023/05/08 05:20:41;;;;;;;9.10;5.40;;;;;;;7.75;86.56;101764.81;6051672;28;20026;-73
2023/05/08 05:23:37;;;;;;;11.97;5.47;;;;;;;7.86;85.09;101770.22;6051435;28;20040;-71
2023/05/08 05:26:33;;;;;;;8.20;5.05;;;;;;;7.93;85.09;101779.44;6052876;28;20439;-71
2023/05/08 05:29:29;;;;;;;8.68;4.55;;;;;;;8.37;84.87;101787.00;6042289;28;20056;-70
2023/05/08 05:32:24;;;;;;;8.85;5.53;;;;;;;8.27;82.89;101763.03;6051862;28;20065;-71
2023/05/08 05:35:19;;;;;;;9.80;4.97;;;;;;;8.78;81.98;101789.41;6051152;28;20033;-70
2023/05/08 05:38:15;;;;;;;8.57;4.70;;;;;;;8.69;81.46;101777.72;6051872;28;20030;-71
2023/05/08 05:41:10;;;;;;;8.83;4.40;;;;;;;8.98;80.46;101767.69;6055086;28;20108;-67
2023/05/08 05:44:05;;;;;;;10.40;5.20;;;;;;;9.06;80.70;101778.56;6050498;28;20378;-72
2023/05/08 05:47:01;;;;;;;9.90;5.47;;;;;;;8.96;79.62;101775.75;6047605;28;20284;-72
2023/05/08 05:49:56;;;;;;;8.30;5.03;;;;;;;8.97;80.61;101772.13;6041037;28;20048;-71
2023/05/08 05:52:52;;;;;;;7.82;5.05;;;;;;;9.34;78.04;101766.84;6045098;28;20525;-72
2023/05/08 05:55:47;;;;;;;7.93;4.25;;;;;;;9.27;79.19;101779.66;6048250;28;20049;-72
2023/05/08 05:58:44;;;;;;;9.73;5.07;;;;;;;8.78;80.30;101777.03;6051391;28;20119;-73
2023/05/08 06:01:39;;;;;;;9.52;5.20;;;;;;;8.91;79.67;101769.91;6053036;28;20026;-72
2023/05/08 06:04:35;;;;;;;11.90;5.07;;;;;;;8.84;80.36;101781.06;6050202;28;20069;-72
2023/05/08 06:07:30;;;;;;;9.82;5.13;;;;;;;9.36;78.89;101780.81;6048357;28;20049;-72
2023/05/08 06:10:26;;;;;;;8.80;4.87;;;;;;;9.09;78.88;101764.28;6051310;28;20045;-71
2023/05/08 06:13:21;;;;;;;7.32;4.95;;;;;;;9.11;79.07;101781.72;6049760;28;20145;-71
2023/05/08 06:16:19;;;;;;;8.77;5.37;;;;;;;9.14;79.14;101781.50;6050788;28;20482;-69
2023/05/08 06:19:14;;;;;;;8.82;4.32;;;;;;;9.31;78.94;101773.22;6050302;28;20049;-72
2023/05/08 06:22:10;;;;;;;8.67;5.27;;;;;;;9.46;77.76;101777.38;6050742;28;20034;-73
2023/05/08 06:25:06;;;;;;;7.20;5.23;;;;;;;9.39;78.58;101788.53;6055541;28;20273;-71
2023/05/08 06:28:02;;;;;;;8.77;5.93;;;;;;;9.28;78.87;101786.66;6046763;28;20036;-70
2023/05/08 06:30:57;;;;;;;9.32;5.53;;;;;;;9.49;77.98;101785.09;6049080;28;20381;-72
2023/05/08 06:33:53;;;;;;;8.50;4.67;;;;;;;9.99;76.79;101775.16;6054340;28;20041;-72
2023/05/08 06:36:48;;;;;;;8.90;5.50;;;;;;;9.94;75.60;101787.94;6048062;28;20034;-72
2023/05/08 06:39:43;;;;;;;9.00;4.90;;;;;;;10.17;75.91;101771.16;6054470;28;20062;-72
2023/05/08 06:42:39;;;;;;;8.47;5.33;;;;;;;10.01;74.78;101766.16;6054359;28;20469;-68
2023/05/08 06:45:34;;;;;;;6.78;4.30;;;;;;;10.74;73.01;101782.53;6045983;28;20805;-70
2023/05/08 06:48:29;;;;;;;8.77;5.10;;;;;;;10.71;73.60;101798.69;6060177;28;20033;-71
2023/05/08 06:51:25;;;;;;;8.55;5.22;;;;;;;10.50;73.60;101788.91;6064093;28;20031;-72
2023/05/08 06:54:20;;;;;;;10.57;5.70;;;;;;;10.56;72.98;101784.00;6045165;28;20041;-70
2023/05/08 06:57:15;;;;;;;7.80;5.00;;;;;;;10.85;72.66;101789.66;6055264;28;20030;-72
2023/05/08 07:00:11;;;;;;;9.57;5.47;;;;;;;10.34;73.60;101785.75;6048693;28;20354;-73
2023/05/08 07:03:06;;;;;;;9.80;6.13;;;;;;;10.18;74.75;101803.81;6045941;28;20044;-72
2023/05/08 07:06:02;;;;;;;10.60;6.53;;;;;;;10.54;74.62;101804.50;6048988;28;20469;-74
2023/05/08 07:08:57;;;;;;;9.73;5.63;;;;;;;10.63;74.03;101784.34;6052939;28;20291;-71
2023/05/08 07:11:52;;;;;;;10.50;6.43;;;;;;;10.83;72.69;101801.34;6052934;28;20084;-71
2023/05/08 07:14:48;;;;;;;8.63;4.63;;;;;;;11.07;72.02;101794.94;6054984;28;20040;-71
2023/05/08 07:17:43;;;;;;;9.33;5.47;;;;;;;11.31;71.11;101802.72;6064127;28;20042;-70
2023/05/08 07:20:38;;;;;;;8.33;5.40;;;;;;;11.12;71.30;101798.06;6045383;28;20031;-70
2023/05/08 07:23:33;;;;;;;8.50;5.10;;;;;;;11.37;69.75;101786.31;6046458;28;20384;-72
2023/05/08 07:26:29;;;;;;;8.67;5.77;;;;;;;11.29;70.51;101800.22;6050486;28;20057;-71
2023/05/08 07:29:25;;;;;;;10.47;5.37;;;;;;;11.84;69.18;101796.56;6061832;28;20432;-72
2023/05/08 07:32:21;;;;;;;11.80;5.20;;;;;;;11.87;68.53;101801.66;6048094;28;20073;-73
2023/05/08 07:35:17;;;;;;;10.03;6.00;;;;;;;12.01;68.06;101781.03;6047377;28;20137;-73
2023/05/08 07:38:12;;;;;;;9.32;5.80;;;;;;;12.33;67.04;101793.28;6046846;28;20273;-69
2023/05/08 07:41:08;;;;;;;10.37;5.33;;;;;;;12.37;66.15;101789.38;6049122;28;20113;-72
2023/05/08 07:44:03;;;;;;;9.07;5.32;;;;;;;12.38;66.56;101782.25;6047607;28;20029;-71
2023/05/08 07:46:59;;;;;;;9.30;5.05;;;;;;;12.50;65.47;101799.84;6047559;28;21310;-72
2023/05/08 07:49:54;;;;;;;8.88;5.22;;;;;;;12.47;64.99;101784.94;6030572;28;20099;-71
2023/05/08 07:52:50;;;;;;;10.17;5.13;;;;;;;11.94;66.64;101792.16;6049726;28;20377;-71
2023/05/08 07:55:45;;;;;;;8.63;5.38;;;;;;;12.26;66.70;101807.22;6053462;28;20133;-72
2023/05/08 07:58:41;;;;;;;9.97;5.97;;;;;;;12.34;66.10;101794.09;6048177;28;20058;-73
2023/05/08 08:01:36;;;;;;;9.35;5.75;;;;;;;12.49;65.21;101780.34;6050390;28;20017;-70
2023/05/08 08:04:32;;;;;;;8.85;5.60;;;;;;;12.46;65.37;101783.28;6046945;28;20030;-72
2023/05/08 08:07:27;;;;;;;6.88;4.07;;;;;;;12.81;64.22;101787.34;6045731;28;20026;-71
2023/05/08 08:10:22;;;;;;;10.10;5.70;;;;;;;13.05;64.57;101780.72;6053325;28;20045;-69
2023/05/08 08:13:18;;;;;;;8.50;4.93;;;;;;;12.96;63.84;101776.19;6063416;28;20033;-72
2023/05/08 08:16:13;;;;;;;8.43;5.10;;;;;;;13.16;62.46;101781.59;6060059;28;20081;-70
2023/05/08 08:19:09;;;;;;;8.33;5.10;;;;;;;13.20;63.40;101796.34;6052443;28;20026;-73
2023/05/08 08:22:05;;;;;;;8.65;5.75;;;;;;;12.96;63.89;101784.19;6051755;28;20048;-71
2023/05/08 08:25:00;;;;;;;9.52;5.53;;;;;;;13.36;62.89;101791.34;6056254;28;20080;-70
2023/05/08 08:27:57;;;;;;;8.80;5.07;;;;;;;13.02;61.98;101783.66;6051019;28;20038;-72
2023/05/08 08:30:52;;;;;;;7.85;4.70;;;;;;;13.16;62.58;101776.28;6054796;28;20273;-71
2023/05/08 08:33:47;;;;;;;10.87;4.77;;;;;;;13.20;62.52;101767.06;6051650;28;20037;-72
2023/05/08 08:36:43;;;;;;;9.53;5.37;;;;;;;13.39;61.22;101788.41;6054917;28;20746;-70
2023/05/08 08:39:38;;;;;;;9.25;4.55;;;;;;;13.24;61.00;101773.78;6052253;28;20032;-70
2023/05/08 08:42:33;;;;;;;7.67;3.97;;;;;;;13.82;58.46;101786.19;6056963;28;20056;-70
2023/05/08 08:45:30;;;;;;;6.07;4.00;;;;;;;14.08;58.47;101786.44;6052060;28;20029;-72
2023/05/08 08:48:27;;;;;;;9.70;4.57;;;;;;;14.15;56.25;101782.25;6057681;28;20037;-72
2023/05/08 08:51:35;;;;;;;6.25;3.88;;;;;;;14.28;55.94;101772.94;6052696;28;20108;-71
2023/05/08 08:54:33;;;;;;;8.30;4.10;;;;;;;14.31;55.27;101777.16;6049435;28;20033;-70
2023/05/08 08:57:32;;;;;;;6.20;3.83;;;;;;;14.82;55.07;101782.91;6051968;28;20025;-72
2023/05/08 09:00:31;;;;;;;5.50;3.60;;;;;;;14.41;55.49;101778.00;6035937;28;20484;-73
2023/05/08 09:03:26;;;;;;;6.93;4.07;;;;;;;14.59;55.71;101735.38;6036895;28;20453;-70
2023/05/08 09:06:21;;;;;;;7.90;4.53;;;;;;;14.80;55.95;101760.84;6051718;28;20026;-72
2023/05/08 09:09:17;;;;;;;9.63;4.30;;;;;;;15.13;55.73;101763.91;6039333;28;20112;-70
2023/05/08 09:12:13;;;;;;;5.67;3.90;;;;;;;15.44;54.46;101770.59;6050639;28;20028;-71
2023/05/08 09:15:08;;;;;;;6.68;3.67;;;;;;;15.59;53.26;101746.88;6053555;28;20049;-72
2023/05/08 09:18:04;;;;;;;9.70;4.00;;;;;;;15.45;56.47;101748.22;6059234;28;20037;-70
2023/05/08 09:21:00;;;;;;;7.63;4.50;;;;;;;15.53;55.36;101755.50;6033105;28;20275;-70
2023/05/08 09:24:01;;;;;;;6.63;4.43;;;;;;;15.83;55.50;101763.16;6050921;28;20026;-70
2023/05/08 09:26:56;;;;;;;6.38;4.18;;;;;;;15.67;55.91;101773.69;6057308;28;20037;-71
2023/05/08 09:30:06;;;;;;;8.73;4.17;;;;;;;15.57;55.63;101762.25;6056110;28;20160;-72
2023/05/08 09:33:02;;;;;;;8.00;4.20;;;;;;;15.63;53.73;101766.97;6050068;28;20324;-70
2023/05/08 09:35:57;;;;;;;6.15;3.78;;;;;;;15.81;54.76;101757.13;6049005;28;20531;-71
2023/05/08 09:38:52;;;;;;;7.33;4.30;;;;;;;15.75;53.56;101742.53;6056935;28;20037;-73
2023/05/08 09:42:02;;;;;;;6.37;4.07;;;;;;;16.11;52.98;101743.31;6057793;28;20044;-69
2023/05/08 09:44:57;;;;;;;7.57;3.85;;;;;;;16.15;53.09;101739.31;6066565;28;20029;-71
2023/05/08 09:47:53;;;;;;;7.73;4.53;;;;;;;15.76;53.70;101746.03;6060276;28;20120;-71
2023/05/08 09:51:04;;;;;;;6.03;3.80;;;;;;;16.16;53.32;101743.69;6050038;28;20022;-69
2023/05/08 09:54:02;;;;;;;7.55;4.22;;;;;;;16.12;53.00;101750.31;6049128;28;20108;-73
2023/05/08 09:56:58;;;;;;;7.32;3.80;;;;;;;16.14;53.01;101745.69;6053543;28;20076;-73
2023/05/08 10:00:13;;;;;;;8.70;4.40;;;;;;;16.17;52.77;101734.63;6045307;28;20417;-71
2023/05/08 10:03:08;;;;;;;8.43;4.10;;;;;;;16.17;53.40;101745.34;6048394;28;20268;-73
2023/05/08 10:06:13;;;;;;;5.83;3.67;;;;;;;16.06;52.50;101738.41;6046676;28;20034;-72
2023/05/08 10:09:11;;;;;;;7.28;3.70;;;;;;;16.15;53.47;101728.59;6042389;28;20030;-70
2023/05/08 10:12:07;;;;;;;7.75;4.20;;;;;;;16.23;53.47;101743.88;6054789;28;20120;-74
2023/05/08 10:15:02;;;;;;;6.93;4.30;;;;;;;16.43;52.93;101750.72;6046646;28;20041;-70
2023/05/08 10:18:05;;;;;;;7.38;4.18;;;;;;;16.22;53.64;101744.88;6045994;28;20029;-71
2023/05/08 10:21:05;;;;;;;6.43;4.03;;;;;;;16.50;53.14;101751.75;6051792;28;20044;-70
2023/05/08 10:24:04;;;;;;;6.90;4.10;;;;;;;16.59;51.74;101745.47;6048820;28;20026;-68
2023/05/08 10:27:15;;;;;;;9.98;4.70;;;;;;;16.94;53.30;101717.66;6050193;28;20022;-71
2023/05/08 10:30:13;;;;;;;9.02;4.45;;;;;;;16.82;52.46;101718.97;6037187;28;20017;-72
2023/05/08 10:33:09;;;;;;;8.05;4.93;;;;;;;17.03;52.74;101738.13;6048436;28;20476;-70
2023/05/08 10:36:05;;;;;;;9.10;4.50;;;;;;;16.70;51.87;101734.47;6048702;28;20041;-70
2023/05/08 10:39:01;;;;;;;8.15;5.57;;;;;;;16.45;52.64;101711.22;6054755;28;20061;-70
2023/05/08 10:41:56;;;;;;;7.05;4.75;;;;;;;16.62;51.51;101719.22;6057991;28;20032;-71
2023/05/08 10:44:52;;;;;;;7.88;4.22;;;;;;;16.78;50.29;101712.22;6037533;28;20084;-74
2023/05/08 10:47:56;;;;;;;6.70;4.55;;;;;;;16.83;50.93;101720.63;6032374;28;20034;-73
2023/05/08 10:51:02;;;;;;;7.20;4.40;;;;;;;16.96;50.88;101721.84;6033526;28;20034;-71
2023/05/08 10:54:18;;;;;;;8.20;4.85;;;;;;;16.73;51.32;101736.84;6038072;28;20034;-70
2023/05/08 10:57:14;;;;;;;7.32;5.25;;;;;;;16.41;51.83;101732.13;6049298;28;20037;-71
2023/05/08 11:00:09;;;;;;;7.75;4.80;;;;;;;16.90;50.39;101727.03;6048672;28;20038;-70
2023/05/08 11:03:05;;;;;;;7.43;5.03;;;;;;;16.28;51.47;101737.06;6047787;28;20374;-70
2023/05/08 11:06:01;;;;;;;6.82;4.15;;;;;;;16.58;50.95;101747.31;6049086;28;20057;-69
2023/05/08 11:08:56;;;;;;;8.83;4.87;;;;;;;16.66;50.32;101731.28;6049859;28;20469;-70
2023/05/08 11:12:00;;;;;;;5.93;3.20;;;;;;;17.07;48.58;101726.06;6048925;28;20014;-70
2023/05/08 11:15:04;;;;;;;6.38;3.50;;;;;;;16.92;47.33;101725.00;6035036;28;20359;-68
2023/05/08 11:18:02;;;;;;;7.80;3.50;;;;;;;17.07;47.67;101729.59;6048587;28;20500;-69
2023/05/08 11:21:02;;;;;;;8.95;4.13;;;;;;;17.14;48.83;101729.78;6052905;28;20449;-72
2023/05/08 11:23:58;;;;;;;9.23;4.30;;;;;;;17.23;49.01;101723.41;6047317;28;20036;-70
2023/05/08 11:26:53;;;;;;;8.77;4.90;;;;;;;16.67;50.25;101708.84;6048713;28;20026;-70
2023/05/08 11:30:17;;;;;;;7.93;4.73;;;;;;;17.04;50.12;101716.50;6047618;28;20644;-69
2023/05/08 11:33:13;;;;;;;5.68;3.53;;;;;;;17.44;48.00;101706.88;6048372;28;20037;-72
2023/05/08 11:36:16;;;;;;;5.80;3.58;;;;;;;17.45;47.21;101706.69;6051936;28;20498;-73
2023/05/08 11:39:11;;;;;;;4.82;3.50;;;;;;;17.25;47.30;101721.44;6056625;28;20037;-70
2023/05/08 11:42:29;;;;;;;7.15;4.45;;;;;;;17.31;47.58;101710.06;6051405;28;20460;-69
2023/05/08 11:45:25;;;;;;;7.95;4.55;;;;;;;17.04;49.13;101702.28;6041582;28;20048;-70
2023/05/08 11:48:20;;;;;;;9.70;5.60;;;;;;;17.03;49.97;101700.59;6047961;28;20405;-72
2023/05/08 11:51:17;;;;;;;8.87;4.80;;;;;;;17.39;49.79;101691.28;6048007;28;20408;-71
2023/05/08 11:54:15;;;;;;;9.32;6.32;;;;;;;17.06;50.37;101711.00;6047726;28;20026;-71
2023/05/08 11:57:11;;;;;;;8.63;5.10;;;;;;;17.04;51.88;101694.25;6051958;28;20029;-71
2023/05/08 12:00:08;;;;;;;7.43;4.43;;;;;;;17.10;50.34;101688.22;6053915;28;20036;-70
2023/05/08 12:03:05;;;;;;;10.10;5.75;;;;;;;17.66;49.26;101704.41;6054122;28;20794;-69
2023/05/08 12:06:01;;;;;;;7.30;4.57;;;;;;;17.66;48.83;101674.06;6048815;28;20092;-69
2023/05/08 12:08:57;;;;;;;8.33;4.67;;;;;;;17.83;47.89;101676.53;6063229;28;20069;-70
2023/05/08 12:11:56;;;;;;;12.02;4.00;;;;;;;18.08;47.60;101688.09;6046734;28;20082;-71
2023/05/08 12:14:52;;;;;;;7.85;4.20;;;;;;;18.26;47.96;101685.22;6046832;28;20381;-72
2023/05/08 12:17:47;;;;;;;8.43;5.68;;;;;;;17.94;47.86;101679.91;6047548;28;20032;-75
2023/05/08 12:20:43;;;;;;;11.50;4.33;;;;;;;17.69;48.54;101682.59;6046438;28;20414;-72
2023/05/08 12:23:38;;;;;;;8.27;4.18;;;;;;;18.45;46.86;101642.63;6028097;28;20272;-71
2023/05/08 12:26:36;;;;;;;8.52;3.30;;;;;;;18.73;45.26;101667.25;6055039;28;20034;-72
2023/05/08 12:29:34;;;;;;;7.05;4.07;;;;;;;18.99;45.83;101669.63;6047518;28;20034;-73
2023/05/08 12:32:30;;;;;;;8.20;4.05;;;;;;;18.29;46.54;101668.75;6046834;28;20033;-72
2023/05/08 12:35:26;;;;;;;7.00;4.40;;;;;;;18.41;47.61;101670.03;6048478;28;20045;-71
2023/05/08 12:38:25;;;;;;;6.65;3.83;;;;;;;18.45;46.55;101674.06;6046943;28;20448;-72
2023/05/08 12:41:25;;;;;;;7.78;3.60;;;;;;;18.19;45.89;101676.97;6052994;28;20084;-71
2023/05/08 12:44:24;;;;;;;5.55;3.28;;;;;;;18.30;46.84;101678.47;6047200;28;20046;-73
2023/05/08 12:47:20;;;;;;;5.90;3.50;;;;;;;18.40;47.24;101681.78;6051011;28;20101;-72
2023/05/08 12:50:16;;;;;;;5.30;3.17;;;;;;;18.36;45.04;101669.72;6047974;28;20034;-72
2023/05/08 12:53:13;;;;;;;7.00;3.90;;;;;;;18.22;46.23;101678.50;6048189;28;20037;-73
2023/05/08 12:56:09;;;;;;;5.97;3.45;;;;;;;18.61;46.63;101665.97;6058740;28;20076;-74
2023/05/08 12:59:04;;;;;;;8.97;3.27;;;;;;;18.90;45.81;101679.59;6052256;28;20029;-70
2023/05/08 13:01:59;;;;;;;7.75;4.35;;;;;;;18.93;45.26;101683.78;6057755;28;20021;-72
2023/05/08 13:04:55;;;;;;;6.73;3.70;;;;;;;18.86;45.27;101678.25;6054829;28;20040;-72
2023/05/08 13:07:50;;;;;;;5.07;3.43;;;;;;;19.23;44.47;101663.25;6052520;28;20046;-70
2023/05/08 13:10:52;;;;;;;6.23;3.23;;;;;;;19.24;45.10;101664.94;6049825;28;20033;-72
2023/05/08 13:14:00;;;;;;;5.32;3.33;;;;;;;19.69;44.27;101654.16;6114744;28;20353;-70
2023/05/08 13:16:55;;;;;;;5.90;3.20;;;;;;;19.55;44.02;101673.78;6117185;28;20381;-72
2023/05/08 13:19:50;;;;;;;8.17;4.47;;;;;;;18.76;45.43;101650.75;6115723;28;20029;-68
2023/05/08 13:22:46;;;;;;;7.57;3.70;;;;;;;18.56;45.57;101660.28;6116800;28;20029;-71
2023/05/08 13:25:41;;;;;;;12.73;5.70;;;;;;;18.51;46.32;101662.63;6114796;28;20082;-72
2023/05/08 13:28:36;;;;;;;6.07;3.80;;;;;;;18.98;45.83;101633.84;6114941;28;20432;-71
2023/05/08 13:31:31;;;;;;;5.13;3.20;;;;;;;18.82;45.57;101650.06;6116274;28;20033;-72
2023/05/08 13:34:27;;;;;;;6.20;4.40;;;;;;;18.78;46.13;101646.03;6114609;28;20029;-72
2023/05/08 13:37:22;;;;;;;5.87;3.07;;;;;;;18.96;45.49;101653.84;6116219;28;20013;-72
2023/05/08 13:40:17;;;;;;;6.00;3.10;;;;;;;19.20;44.33;101642.09;6115555;28;20036;-71
2023/05/08 13:43:13;;;;;;;5.70;2.83;;;;;;;19.10;45.04;101649.56;6115645;28;20024;-72
2023/05/08 13:46:08;;;;;;;5.03;2.97;;;;;;;19.60;44.58;101633.72;6116090;28;20044;-73
2023/05/08 13:49:03;;;;;;;6.10;3.57;;;;;;;19.50;44.72;101619.69;6114389;28;20021;-72